Time;durP1;ratioP1;P1;durP2;ratioP2;P2;SDS_P1;SDS_P2;PMS_P1;PMS_P2;Temp;Humidity;BMP_temperature;BMP_pressure;BME280_temperature;BME280_humidity;BME280_pressure;Samples;Min_cycle;Max_cycle;Signal;HPM_P1;HPM_P2
2023/06/12 00:01:44;;;;;;;;;;;19.60;74.90;;;18.87;nan;95879.00;5071650;28;20235;-82
2023/06/12 00:04:13;;;;;;;;;;;19.60;74.90;;;18.86;nan;95877.38;5088287;28;19920;-83
2023/06/12 00:06:42;;;;;;;;;;;19.60;74.90;;;18.86;nan;95866.28;5054279;28;19927;-82
2023/06/12 00:09:10;;;;;;;;;;;19.60;74.90;;;18.86;nan;95867.09;5071125;28;19929;-82
2023/06/12 00:11:40;;;;;;;;;;;19.60;74.90;;;18.86;nan;95872.63;5071674;28;19920;-82
2023/06/12 00:14:08;;;;;;;;;;;19.60;74.90;;;18.86;nan;95860.72;5071700;28;19934;-82
2023/06/12 00:16:37;;;;;;;;;;;19.60;74.90;;;18.87;nan;95865.13;5071533;28;19927;-82
2023/06/12 00:19:05;;;;;;;;;;;19.60;74.90;;;18.86;nan;95855.19;5072010;28;20213;-82
2023/06/12 00:21:33;;;;;;;;;;;19.50;74.80;;;18.83;nan;95858.63;5071485;28;19920;-83
2023/06/12 00:24:08;;;;;;;;;;;19.60;74.90;;;18.81;nan;95853.41;5071406;28;19921;-82
2023/06/12 00:26:36;;;;;;;;;;;19.50;75.00;;;18.80;nan;95856.50;5071500;28;19925;-83
2023/06/12 00:29:04;;;;;;;;;;;19.50;75.00;;;18.80;nan;95853.72;5071674;28;19920;-82
2023/06/12 00:31:32;;;;;;;;;;;19.50;75.10;;;18.78;nan;95854.06;5072208;28;20112;-82
2023/06/12 00:34:00;;;;;;;;;;;19.50;75.00;;;18.78;nan;95853.28;5071155;28;19943;-82
2023/06/12 00:36:28;;;;;;;;;;;19.50;75.10;;;18.79;nan;95854.88;5052369;28;19928;-82
2023/06/12 00:38:56;;;;;;;;;;;19.50;75.10;;;18.79;nan;95849.34;5051708;28;20225;-82
2023/06/12 00:41:25;;;;;;;;;;;19.50;75.00;;;18.79;nan;95843.78;5052001;28;19921;-82
2023/06/12 00:43:53;;;;;;;;;;;19.50;75.00;;;18.78;nan;95845.75;5052075;28;19920;-82
2023/06/12 00:46:21;;;;;;;;;;;19.50;75.00;;;18.78;nan;95845.75;5051095;28;20116;-82
2023/06/12 00:48:49;;;;;;;;;;;19.50;74.90;;;18.76;nan;95838.94;5050234;28;19935;-82
2023/06/12 00:51:18;;;;;;;;;;;19.50;75.00;;;18.76;nan;95844.47;5052001;28;19927;-83
2023/06/12 00:53:46;;;;;;;;;;;19.40;74.90;;;18.75;nan;95840.06;5052105;28;19927;-83
2023/06/12 00:56:14;;;;;;;;;;;19.40;75.70;;;18.76;nan;95842.50;5050990;28;20228;-82
2023/06/12 00:58:43;;;;;;;;;;;19.40;74.90;;;18.75;nan;95837.28;5050433;28;20132;-83
2023/06/12 01:01:11;;;;;;;;;;;19.40;74.80;;;18.77;nan;95840.56;5050735;28;19935;-82
2023/06/12 01:03:39;;;;;;;;;;;19.40;74.90;;;18.77;nan;95843.31;5050822;28;19921;-82
2023/06/12 01:06:08;;;;;;;;;;;19.50;74.90;;;18.77;nan;95848.88;5050987;28;19921;-82
2023/06/12 01:08:42;;;;;;;;;;;19.50;74.90;;;18.77;nan;95846.09;5050235;28;19927;-82
2023/06/12 01:11:12;;;;;;;;;;;19.50;75.70;;;18.76;nan;95838.94;5050723;28;19921;-82
2023/06/12 01:13:43;;;;;;;;;;;19.40;74.80;;;18.76;nan;95838.94;5050536;28;20116;-82
2023/06/12 01:16:11;;;;;;;;;;;19.50;74.80;;;18.77;nan;95835.00;5050643;28;19927;-82
2023/06/12 01:18:49;;;;;;;;;;;19.40;74.70;;;18.76;nan;95838.94;5050134;28;19921;-82
2023/06/12 01:21:18;;;;;;;;;;;19.50;74.80;;;18.76;nan;95839.72;5050581;28;19955;-82
2023/06/12 01:24:01;;;;;;;;;;;19.50;74.80;;;18.75;nan;95831.75;5050284;28;20117;-82
2023/06/12 01:26:52;;;;;;;;;;;19.40;74.70;;;18.74;nan;95827.34;5050602;28;20239;-82
2023/06/12 01:30:08;;;;;;;;;;;19.40;74.60;;;18.73;nan;95825.72;5033263;28;19921;-82
2023/06/12 01:32:39;;;;;;;;;;;19.40;74.70;;;18.70;nan;95822.47;4974405;28;19922;-82
2023/06/12 01:35:11;;;;;;;;;;;19.40;74.60;;;18.69;nan;95823.59;5033753;28;19921;-82
2023/06/12 01:37:43;;;;;;;;;;;19.40;74.80;;;18.67;nan;95820.34;5033725;28;19921;-82
2023/06/12 01:40:13;;;;;;;;;;;19.40;74.80;;;18.67;nan;95820.34;5066685;28;20104;-82
2023/06/12 01:42:42;;;;;;;;;;;19.40;74.80;;;18.65;nan;95817.09;5033552;28;19921;-82
2023/06/12 01:45:10;;;;;;;;;;;19.40;74.80;;;18.66;nan;95818.72;5049458;28;19935;-82
2023/06/12 01:47:41;;;;;;;;;;;19.40;74.80;;;18.66;nan;95817.91;5053515;28;19921;-82
2023/06/12 01:50:13;;;;;;;;;;;19.40;74.80;;;18.65;nan;95817.09;5069704;28;19920;-82
2023/06/12 01:52:41;;;;;;;;;;;19.40;74.80;;;18.65;nan;95822.63;5069998;28;20208;-82
2023/06/12 01:55:10;;;;;;;;;;;19.40;74.80;;;18.66;nan;95829.81;5070105;28;20117;-82
2023/06/12 01:57:38;;;;;;;;;;;19.40;74.70;;;18.66;nan;95827.03;5053370;28;19920;-83
2023/06/12 02:00:09;;;;;;;;;;;19.40;74.60;;;18.67;nan;95823.13;5052765;28;19920;-82
2023/06/12 02:02:53;;;;;;;;;;;19.40;74.60;;;18.68;nan;95823.94;5068788;28;20118;-82
2023/06/12 02:05:23;;;;;;;;;;;19.40;74.40;;;18.68;nan;95826.72;5069030;28;19921;-82
2023/06/12 02:07:51;;;;;;;;;;;19.40;74.30;;;18.68;nan;95821.19;5086636;28;19924;-82
2023/06/12 02:10:20;;;;;;;;;;;19.40;74.30;;;18.67;nan;95825.88;5052566;28;19927;-82
2023/06/12 02:12:48;;;;;;;;;;;19.40;74.10;;;18.68;nan;95827.53;5069871;28;19927;-83
2023/06/12 02:15:16;;;;;;;;;;;19.40;74.10;;;18.68;nan;95826.72;5069904;28;19921;-83
2023/06/12 02:17:44;;;;;;;;;;;19.40;74.10;;;18.68;nan;95830.28;5070726;28;19920;-83
2023/06/12 02:20:14;;;;;;;;;;;19.40;74.10;;;18.67;nan;95831.44;5069236;28;19927;-83
2023/06/12 02:22:42;;;;;;;;;;;19.40;74.10;;;18.68;nan;95821.97;5069667;28;19921;-83
2023/06/12 02:25:10;;;;;;;;;;;19.40;74.00;;;18.68;nan;95833.06;5086326;28;19927;-83
2023/06/12 02:27:38;;;;;;;;;;;19.40;73.90;;;18.68;nan;95833.06;5069766;28;20094;-84
2023/06/12 02:30:08;;;;;;;;;;;19.40;73.90;;;18.68;nan;95838.59;5069106;28;20116;-83
2023/06/12 02:32:37;;;;;;;;;;;19.40;73.90;;;18.66;nan;95829.81;5103160;28;19920;-83
2023/06/12 02:35:10;;;;;;;;;;;19.40;73.80;;;18.68;nan;95832.28;5103386;28;19920;-83
2023/06/12 02:37:40;;;;;;;;;;;19.40;73.80;;;18.66;nan;95829.00;5103363;28;19927;-83
2023/06/12 02:40:10;;;;;;;;;;;19.40;73.70;;;18.66;nan;95835.34;5102564;28;19921;-83
2023/06/12 02:42:38;;;;;;;;;;;19.40;73.80;;;18.65;nan;95839.25;5103215;28;19926;-83
2023/06/12 02:45:07;;;;;;;;;;;19.40;73.80;;;18.65;nan;95833.72;5086164;28;19920;-83
2023/06/12 02:47:35;;;;;;;;;;;19.40;73.80;;;18.64;nan;95843.22;5086105;28;19920;-83
2023/06/12 02:50:06;;;;;;;;;;;19.40;73.80;;;18.66;nan;95845.63;5069191;28;20140;-83
2023/06/12 02:52:44;;;;;;;;;;;19.40;73.70;;;18.67;nan;95842.53;5103169;28;19920;-83
2023/06/12 02:55:12;;;;;;;;;;;19.40;73.70;;;18.66;nan;95843.66;5069365;28;19920;-83
2023/06/12 02:57:40;;;;;;;;;;;19.40;73.70;;;18.68;nan;95848.91;5105807;28;19921;-83
2023/06/12 03:00:10;;;;;;;;;;;19.40;73.70;;;18.69;nan;95851.34;5088767;28;20234;-83
2023/06/12 03:02:45;;;;;;;;;;;19.40;73.60;;;18.69;nan;95848.56;5106451;28;20119;-82
2023/06/12 03:05:14;;;;;;;;;;;19.40;73.60;;;18.69;nan;95845.78;5088980;28;19927;-83
2023/06/12 03:07:44;;;;;;;;;;;19.40;73.60;;;18.70;nan;95841.06;5106494;28;19921;-83
2023/06/12 03:10:16;;;;;;;;;;;19.40;73.30;;;18.69;nan;95854.09;5071988;28;20314;-83
2023/06/12 03:12:45;;;;;;;;;;;19.40;73.40;;;18.68;nan;95844.16;5072679;28;19920;-83
2023/06/12 03:15:14;;;;;;;;;;;19.40;73.40;;;18.67;nan;95844.50;5073741;28;19921;-83
2023/06/12 03:17:43;;;;;;;;;;;19.40;73.40;;;18.66;nan;95857.53;5106111;28;19920;-83
2023/06/12 03:20:14;;;;;;;;;;;19.40;73.30;;;18.63;nan;95849.91;5072958;28;19921;-83
2023/06/12 03:22:43;;;;;;;;;;;19.40;73.30;;;18.63;nan;95851.84;5106268;28;19920;-83
2023/06/12 03:25:15;;;;;;;;;;;19.30;73.20;;;18.60;nan;95847.78;5072216;28;20200;-83
2023/06/12 03:27:43;;;;;;;;;;;19.30;73.00;;;18.58;nan;95849.28;5089329;28;19920;-83
2023/06/12 03:30:11;;;;;;;;;;;19.30;73.20;;;18.54;nan;95855.47;5088517;28;20131;-83
2023/06/12 03:32:40;;;;;;;;;;;19.20;73.20;;;18.54;nan;95857.41;5055751;28;19920;-83
2023/06/12 03:35:08;;;;;;;;;;;19.20;73.40;;;18.53;nan;95859.38;5072475;28;20208;-83
2023/06/12 03:37:39;;;;;;;;;;;19.20;73.20;;;18.52;nan;95857.75;5072270;28;19956;-83
2023/06/12 03:40:12;;;;;;;;;;;19.20;73.10;;;18.52;nan;95862.50;5071469;28;19920;-83
2023/06/12 03:42:42;;;;;;;;;;;19.20;73.20;;;18.48;nan;95862.31;5072172;28;19942;-83
2023/06/12 03:45:11;;;;;;;;;;;19.20;73.00;;;18.47;nan;95860.69;5071793;28;20065;-83
2023/06/12 03:47:39;;;;;;;;;;;19.20;73.10;;;18.45;nan;95865.78;5105938;28;19927;-84
2023/06/12 03:50:10;;;;;;;;;;;19.10;73.10;;;18.40;nan;95854.84;5071419;28;19921;-84
2023/06/12 03:52:39;;;;;;;;;;;19.10;73.20;;;18.35;nan;95861.38;5088532;28;19927;-83
2023/06/12 03:55:07;;;;;;;;;;;19.00;73.20;;;18.33;nan;95860.91;5088812;28;19920;-83
2023/06/12 03:57:37;;;;;;;;;;;19.00;73.50;;;18.31;nan;95856.84;5055176;28;19927;-83
2023/06/12 04:00:06;;;;;;;;;;;19.00;73.40;;;18.29;nan;95868.22;5071196;28;19920;-83
2023/06/12 04:02:45;;;;;;;;;;;19.00;73.60;;;18.27;nan;95862.19;5071772;28;19920;-83
2023/06/12 04:05:15;;;;;;;;;;;18.90;73.50;;;18.25;nan;95870.06;5105466;28;19927;-83
2023/06/12 04:07:43;;;;;;;;;;;18.90;73.60;;;18.23;nan;95866.78;5105104;28;20208;-83
2023/06/12 04:10:11;;;;;;;;;;;18.90;73.60;;;18.20;nan;95861.91;5087980;28;20116;-83
2023/06/12 04:12:40;;;;;;;;;;;18.90;73.90;;;18.19;nan;95860.28;5088299;28;19921;-83
2023/06/12 04:15:09;;;;;;;;;;;18.80;73.80;;;18.18;nan;95864.19;5088421;28;19920;-83
2023/06/12 04:17:37;;;;;;;;;;;18.80;73.90;;;18.18;nan;95861.41;5105204;28;20208;-83
2023/06/12 04:20:07;;;;;;;;;;;18.80;73.90;;;18.18;nan;95861.41;5104842;28;19927;-83
2023/06/12 04:22:35;;;;;;;;;;;18.80;74.10;;;18.19;nan;95865.81;5071619;28;19920;-83
2023/06/12 04:25:05;;;;;;;;;;;18.80;74.10;;;18.19;nan;95854.72;5088288;28;19927;-83
2023/06/12 04:27:34;;;;;;;;;;;18.80;74.10;;;18.20;nan;95850.81;5071440;28;20097;-83
2023/06/12 04:30:05;;;;;;;;;;;18.90;74.00;;;18.21;nan;95855.22;5104510;28;19921;-83
2023/06/12 04:32:33;;;;;;;;;;;18.90;73.90;;;18.21;nan;95844.13;5105222;28;19921;-83
2023/06/12 04:35:03;;;;;;;;;;;18.90;73.70;;;18.22;nan;95848.53;5072369;28;19920;-83
2023/06/12 04:37:31;;;;;;;;;;;18.90;73.70;;;18.21;nan;95847.72;5071072;28;19927;-83
2023/06/12 04:39:58;;;;;;;;;;;18.80;73.50;;;18.21;nan;95847.72;5071682;28;19920;-83
2023/06/12 04:42:26;;;;;;;;;;;18.90;73.70;;;18.19;nan;95844.47;5104906;28;19928;-83
2023/06/12 04:44:54;;;;;;;;;;;18.90;73.60;;;18.17;nan;95841.22;5104892;28;19994;-83
2023/06/12 04:47:24;;;;;;;;;;;18.80;73.50;;;18.16;nan;95838.75;5071304;28;20208;-83
2023/06/12 04:49:57;;;;;;;;;;;18.80;73.70;;;18.17;nan;95845.94;5070608;28;20120;-83
2023/06/12 04:52:26;;;;;;;;;;;18.80;73.80;;;18.17;nan;95843.16;5104573;28;20086;-83
2023/06/12 04:54:54;;;;;;;;;;;18.80;73.60;;;18.17;nan;95841.22;5071063;28;19920;-83
2023/06/12 04:57:22;;;;;;;;;;;18.80;73.20;;;18.16;nan;95838.75;5087621;28;19920;-83
2023/06/12 04:59:50;;;;;;;;;;;18.80;73.20;;;18.16;nan;95844.31;5070542;28;19921;-83
2023/06/12 05:02:18;;;;;;;;;;;18.80;73.30;;;18.15;nan;95851.81;5087474;28;19920;-83
2023/06/12 05:04:47;;;;;;;;;;;18.80;73.20;;;18.13;nan;95851.31;5070998;28;20116;-83
2023/06/12 05:07:18;;;;;;;;;;;18.80;73.20;;;18.14;nan;95852.94;5087446;28;19943;-83
2023/06/12 05:09:50;;;;;;;;;;;18.80;73.40;;;18.15;nan;95862.06;5104048;28;20120;-83
2023/06/12 05:12:18;;;;;;;;;;;18.80;73.50;;;18.16;nan;95855.38;5070599;28;20111;-83
2023/06/12 05:14:47;;;;;;;;;;;18.80;73.50;;;18.19;nan;95860.28;5070777;28;19920;-83
2023/06/12 05:17:16;;;;;;;;;;;18.80;73.20;;;18.18;nan;95859.47;5053691;28;19927;-83
2023/06/12 05:19:44;;;;;;;;;;;18.80;73.10;;;18.19;nan;95860.28;5069141;28;19920;-84
2023/06/12 05:22:15;;;;;;;;;;;18.80;73.10;;;18.18;nan;95862.25;5053487;28;20388;-83
2023/06/12 05:24:44;;;;;;;;;;;18.80;73.30;;;18.18;nan;95864.19;5070683;28;19935;-83
2023/06/12 05:27:12;;;;;;;;;;;18.80;73.40;;;18.18;nan;95866.94;5053863;28;20120;-82
2023/06/12 05:29:40;;;;;;;;;;;18.80;73.10;;;18.18;nan;95872.50;5069995;28;19927;-83
2023/06/12 05:32:09;;;;;;;;;;;18.80;73.40;;;18.18;nan;95864.19;5070489;28;19921;-83
2023/06/12 05:34:39;;;;;;;;;;;18.80;73.40;;;18.19;nan;95872.19;5053892;28;19921;-83
2023/06/12 05:37:07;;;;;;;;;;;18.80;73.30;;;18.19;nan;95868.59;5053656;28;19928;-83
2023/06/12 05:39:38;;;;;;;;;;;18.80;73.10;;;18.19;nan;95872.19;5069775;28;19920;-83
2023/06/12 05:42:07;;;;;;;;;;;18.90;73.10;;;18.21;nan;95869.06;5053550;28;20097;-83
2023/06/12 05:44:35;;;;;;;;;;;18.90;73.30;;;18.22;nan;95882.59;5066909;28;19921;-83
2023/06/12 05:47:04;;;;;;;;;;;18.90;73.30;;;18.24;nan;95874.75;5083559;28;19927;-83
2023/06/12 05:49:34;;;;;;;;;;;18.90;73.20;;;18.25;nan;95876.41;5033146;28;19927;-84
2023/06/12 05:52:02;;;;;;;;;;;18.90;72.70;;;18.27;nan;95873.28;5051435;28;19921;-83
2023/06/12 05:54:30;;;;;;;;;;;18.90;72.90;;;18.28;nan;95886.00;5050264;28;19920;-83
2023/06/12 05:57:00;;;;;;;;;;;19.00;73.00;;;18.28;nan;95877.69;5060727;28;19921;-83
2023/06/12 05:59:28;;;;;;;;;;;19.00;73.00;;;18.29;nan;95876.53;5069629;28;20116;-83
2023/06/12 06:01:57;;;;;;;;;;;19.00;72.70;;;18.29;nan;95864.66;5053128;28;19927;-84
2023/06/12 06:04:25;;;;;;;;;;;19.00;72.40;;;18.26;nan;95882.78;5070061;28;19920;-84
2023/06/12 06:06:54;;;;;;;;;;;18.90;72.50;;;18.22;nan;95879.00;5066561;28;19927;-84
2023/06/12 06:09:22;;;;;;;;;;;18.90;72.50;;;18.20;nan;95875.75;5066043;28;19947;-84
2023/06/12 06:11:50;;;;;;;;;;;18.90;72.80;;;18.18;nan;95878.03;5066515;28;19921;-84
2023/06/12 06:14:22;;;;;;;;;;;18.90;73.20;;;18.19;nan;95872.19;5051025;28;19928;-84
2023/06/12 06:16:51;;;;;;;;;;;18.90;73.30;;;18.20;nan;95876.56;5049909;28;19943;-84
2023/06/12 06:19:19;;;;;;;;;;;18.90;73.40;;;18.20;nan;95884.06;5050168;28;19927;-84
2023/06/12 06:21:48;;;;;;;;;;;18.90;73.40;;;18.22;nan;95882.59;5049673;28;19921;-84
2023/06/12 06:24:15;;;;;;;;;;;18.90;73.20;;;18.22;nan;95885.34;5033026;28;19927;-84
2023/06/12 06:26:43;;;;;;;;;;;18.90;73.20;;;18.23;nan;95886.19;5049832;28;19928;-84
2023/06/12 06:29:11;;;;;;;;;;;18.90;73.30;;;18.23;nan;95891.72;5065846;28;19921;-84
2023/06/12 06:31:42;;;;;;;;;;;18.90;73.30;;;18.22;nan;95888.13;5052686;28;20227;-84
2023/06/12 06:34:10;;;;;;;;;;;18.90;73.30;;;18.23;nan;95898.06;5053021;28;19921;-84
2023/06/12 06:36:38;;;;;;;;;;;18.90;73.50;;;18.23;nan;95894.50;5069831;28;19924;-84
2023/06/12 06:39:07;;;;;;;;;;;18.90;73.50;;;18.24;nan;95885.03;5035639;28;19921;-84
2023/06/12 06:41:35;;;;;;;;;;;18.90;73.60;;;18.24;nan;95902.47;5079116;28;19921;-84
2023/06/12 06:44:03;;;;;;;;;;;18.90;73.50;;;18.26;nan;95896.63;5069421;28;19921;-84
2023/06/12 06:46:33;;;;;;;;;;;19.00;73.40;;;18.27;nan;95895.44;5053008;28;19928;-84
2023/06/12 06:49:03;;;;;;;;;;;19.00;73.20;;;18.28;nan;95897.09;5052185;28;20231;-84
2023/06/12 06:51:31;;;;;;;;;;;19.00;73.20;;;18.28;nan;95897.09;5069730;28;19921;-84
2023/06/12 06:53:59;;;;;;;;;;;19.00;73.30;;;18.27;nan;95886.34;5052878;28;20125;-83
2023/06/12 06:56:27;;;;;;;;;;;19.00;73.40;;;18.27;nan;95889.91;5069641;28;19943;-84
2023/06/12 06:58:55;;;;;;;;;;;19.00;73.60;;;18.27;nan;95883.56;5051800;28;19943;-84
2023/06/12 07:01:24;;;;;;;;;;;19.00;73.60;;;18.28;nan;95886.00;5072771;28;19931;-84
2023/06/12 07:03:52;;;;;;;;;;;19.00;73.80;;;18.26;nan;95891.09;5055885;28;19920;-83
2023/06/12 07:06:23;;;;;;;;;;;19.00;73.80;;;18.27;nan;95884.38;5072749;28;19927;-83
2023/06/12 07:08:51;;;;;;;;;;;19.00;73.80;;;18.29;nan;95887.63;5072065;28;19927;-83
2023/06/12 07:11:19;;;;;;;;;;;19.00;73.80;;;18.30;nan;95892.03;5072636;28;19920;-83
2023/06/12 07:13:48;;;;;;;;;;;19.00;73.70;;;18.32;nan;95892.53;5072700;28;20112;-84
2023/06/12 07:16:16;;;;;;;;;;;19.00;73.80;;;18.32;nan;95908.34;5055994;28;19955;-84
2023/06/12 07:18:44;;;;;;;;;;;19.00;73.70;;;18.31;nan;95907.53;5088523;28;19921;-84
2023/06/12 07:21:14;;;;;;;;;;;19.00;74.10;;;18.30;nan;95899.53;5056047;28;19921;-84
2023/06/12 07:23:43;;;;;;;;;;;19.00;74.00;;;18.30;nan;95899.53;5072327;28;19921;-84
2023/06/12 07:26:12;;;;;;;;;;;19.00;74.30;;;18.30;nan;95892.03;5055749;28;19921;-84
2023/06/12 07:28:40;;;;;;;;;;;19.00;74.30;;;18.31;nan;95907.53;5071837;28;19935;-84
2023/06/12 07:31:08;;;;;;;;;;;19.00;74.30;;;18.32;nan;95903.59;5089050;28;19920;-84
2023/06/12 07:33:36;;;;;;;;;;;19.00;74.40;;;18.33;nan;95902.47;5072361;28;19921;-84
2023/06/12 07:36:04;;;;;;;;;;;19.00;74.80;;;18.36;nan;95904.59;5055520;28;19920;-84
2023/06/12 07:38:32;;;;;;;;;;;19.00;74.00;;;18.35;nan;95907.66;5054972;28;20232;-85
2023/06/12 07:41:02;;;;;;;;;;;19.00;73.70;;;18.35;nan;95913.22;5055177;28;19920;-85
2023/06/12 07:43:34;;;;;;;;;;;19.00;73.20;;;18.34;nan;95906.88;5054526;28;20204;-84
2023/06/12 07:46:02;;;;;;;;;;;19.00;73.50;;;18.35;nan;95913.22;5072047;28;19920;-84
2023/06/12 07:48:30;;;;;;;;;;;19.00;73.30;;;18.34;nan;95900.50;5054843;28;20278;-85
2023/06/12 07:51:00;;;;;;;;;;;19.00;73.30;;;18.34;nan;95911.56;5055225;28;20213;-85
2023/06/12 07:53:28;;;;;;;;;;;19.00;73.50;;;18.32;nan;95909.16;5055126;28;19927;-85
2023/06/12 07:55:56;;;;;;;;;;;19.00;73.30;;;18.33;nan;95904.44;5055336;28;19920;-85
2023/06/12 07:58:25;;;;;;;;;;;19.00;73.40;;;18.32;nan;95909.16;5071511;28;19927;-85
2023/06/12 08:00:55;;;;;;;;;;;19.00;73.40;;;18.32;nan;95908.34;5071779;28;19928;-85
2023/06/12 08:03:25;;;;;;;;;;;19.00;73.40;;;18.32;nan;95919.44;5071918;28;20089;-85
2023/06/12 08:05:53;;;;;;;;;;;19.00;73.30;;;18.31;nan;95912.25;5071747;28;20097;-85
2023/06/12 08:08:22;;;;;;;;;;;19.00;73.60;;;18.31;nan;95918.59;5054659;28;20116;-86
2023/06/12 08:10:50;;;;;;;;;;;19.00;73.70;;;18.32;nan;95923.00;5071681;28;19927;-85
2023/06/12 08:13:19;;;;;;;;;;;19.00;73.80;;;18.33;nan;95919.09;5071680;28;20209;-85
2023/06/12 08:15:49;;;;;;;;;;;19.00;73.80;;;18.34;nan;95917.13;5088362;28;19921;-85
2023/06/12 08:18:19;;;;;;;;;;;19.00;73.70;;;18.35;nan;95921.53;5054764;28;19936;-85
2023/06/12 08:20:47;;;;;;;;;;;19.00;74.00;;;18.35;nan;95919.59;5054578;28;19921;-85
2023/06/12 08:23:15;;;;;;;;;;;19.00;74.10;;;18.35;nan;95922.34;5054848;28;20117;-85
2023/06/12 08:25:44;;;;;;;;;;;19.00;74.50;;;18.34;nan;95914.34;5088253;28;20231;-85
2023/06/12 08:28:12;;;;;;;;;;;19.00;74.40;;;18.31;nan;95918.59;5088365;28;19921;-85
2023/06/12 08:30:40;;;;;;;;;;;19.00;74.40;;;18.31;nan;95923.34;5054329;28;19920;-85
2023/06/12 08:33:10;;;;;;;;;;;19.00;74.80;;;18.30;nan;95916.16;5071290;28;19920;-84
2023/06/12 08:35:38;;;;;;;;;;;19.00;74.70;;;18.30;nan;95922.50;5088133;28;19920;-86
2023/06/12 08:38:06;;;;;;;;;;;19.00;74.70;;;18.31;nan;95929.69;5054746;28;19927;-86
2023/06/12 08:40:35;;;;;;;;;;;19.00;74.50;;;18.32;nan;95931.31;5054039;28;19921;-85
2023/06/12 08:43:03;;;;;;;;;;;19.00;74.10;;;18.32;nan;95925.78;5088122;28;19943;-85
2023/06/12 08:45:31;;;;;;;;;;;19.00;74.80;;;18.32;nan;95928.56;5054439;28;19934;-85
2023/06/12 08:48:00;;;;;;;;;;;19.00;73.90;;;18.32;nan;95930.53;5071172;28;19921;-85
2023/06/12 08:50:38;;;;;;;;;;;19.00;74.00;;;18.32;nan;95942.41;5053713;28;20115;-85
2023/06/12 08:53:06;;;;;;;;;;;19.00;73.90;;;18.32;nan;95947.94;5070670;28;20191;-85
2023/06/12 08:55:44;;;;;;;;;;;19.00;73.80;;;18.32;nan;95942.41;5053729;28;19920;-84
2023/06/12 08:58:12;;;;;;;;;;;19.00;73.80;;;18.33;nan;95941.25;5071156;28;19920;-85
2023/06/12 09:00:47;;;;;;;;;;;19.00;73.80;;;18.36;nan;95948.09;5071862;28;19920;-84
2023/06/12 09:03:15;;;;;;;;;;;19.00;73.70;;;18.37;nan;95945.03;5072231;28;19921;-84
2023/06/12 09:05:45;;;;;;;;;;;19.10;73.80;;;18.38;nan;95943.88;5070978;28;19920;-85
2023/06/12 09:08:13;;;;;;;;;;;19.10;73.80;;;18.39;nan;95939.97;5070507;28;19926;-84
2023/06/12 09:10:41;;;;;;;;;;;19.10;74.60;;;18.39;nan;95942.75;5070325;28;19920;-85
2023/06/12 09:13:10;;;;;;;;;;;19.10;73.60;;;18.40;nan;95944.34;5070592;28;19921;-85
2023/06/12 09:15:38;;;;;;;;;;;19.10;73.50;;;18.41;nan;95939.63;5070438;28;19920;-84
2023/06/12 09:18:09;;;;;;;;;;;19.10;73.60;;;18.44;nan;95944.53;5054007;28;19927;-84
2023/06/12 09:20:37;;;;;;;;;;;19.10;74.00;;;18.40;nan;95938.78;5070152;28;19921;-85
2023/06/12 09:23:06;;;;;;;;;;;19.10;73.50;;;18.44;nan;95940.91;5054052;28;20116;-85
2023/06/12 09:25:35;;;;;;;;;;;19.10;73.70;;;18.44;nan;95938.97;5053788;28;19927;-84
2023/06/12 09:28:04;;;;;;;;;;;19.10;73.70;;;18.47;nan;95940.28;5070633;28;19920;-84
2023/06/12 09:30:32;;;;;;;;;;;19.20;73.70;;;18.48;nan;95939.13;5071097;28;20120;-85
2023/06/12 09:33:00;;;;;;;;;;;19.20;73.50;;;18.50;nan;95931.31;5070512;28;19920;-84
2023/06/12 09:35:29;;;;;;;;;;;19.20;73.20;;;18.50;nan;95936.84;5070260;28;19926;-85
2023/06/12 09:37:57;;;;;;;;;;;19.20;73.10;;;18.51;nan;95930.16;5070579;28;19927;-85
2023/06/12 09:40:27;;;;;;;;;;;19.20;73.20;;;18.50;nan;95934.06;5049698;28;20247;-85
2023/06/12 09:42:55;;;;;;;;;;;19.20;72.80;;;18.51;nan;95939.28;5033653;28;19943;-85
2023/06/12 09:45:24;;;;;;;;;;;19.20;73.10;;;18.49;nan;95935.22;5066703;28;19921;-85
2023/06/12 09:47:53;;;;;;;;;;;19.20;72.50;;;18.49;nan;95929.69;5050252;28;19921;-85
2023/06/12 09:50:23;;;;;;;;;;;19.20;73.10;;;18.48;nan;95939.13;5050687;28;19921;-84
2023/06/12 09:52:51;;;;;;;;;;;19.20;73.00;;;18.47;nan;95929.97;5066744;28;19921;-85
2023/06/12 09:55:19;;;;;;;;;;;19.20;73.00;;;18.48;nan;95942.69;5050071;28;19927;-85
2023/06/12 09:57:50;;;;;;;;;;;19.20;72.90;;;18.47;nan;95940.28;5050418;28;19975;-85
2023/06/12 10:00:19;;;;;;;;;;;19.20;73.00;;;18.48;nan;95933.59;5065407;28;20123;-85
2023/06/12 10:02:50;;;;;;;;;;;19.20;73.00;;;18.49;nan;95935.22;5070031;28;19920;-85
2023/06/12 10:05:20;;;;;;;;;;;19.20;73.00;;;18.50;nan;95934.06;5069590;28;19921;-85
2023/06/12 10:07:51;;;;;;;;;;;19.20;73.00;;;18.50;nan;95936.84;5070228;28;20208;-85
2023/06/12 10:10:20;;;;;;;;;;;19.20;73.00;;;18.50;nan;95929.34;5069642;28;19921;-85
2023/06/12 10:12:49;;;;;;;;;;;19.20;73.10;;;18.51;nan;95927.41;5070031;28;19927;-85
2023/06/12 10:15:17;;;;;;;;;;;19.20;73.20;;;18.52;nan;95934.56;5069951;28;19979;-85
2023/06/12 10:17:45;;;;;;;;;;;19.20;73.30;;;18.52;nan;95945.66;5053521;28;19921;-85
2023/06/12 10:20:13;;;;;;;;;;;19.20;73.20;;;18.52;nan;95934.56;5070400;28;19921;-85
2023/06/12 10:22:41;;;;;;;;;;;19.20;73.20;;;18.52;nan;95929.03;5069921;28;19927;-85
2023/06/12 10:25:10;;;;;;;;;;;19.20;73.10;;;18.52;nan;95934.56;5083286;28;19927;-84
2023/06/12 10:27:38;;;;;;;;;;;19.20;73.10;;;18.54;nan;95926.72;5049712;28;19921;-84
2023/06/12 10:30:10;;;;;;;;;;;19.20;73.10;;;18.54;nan;95933.09;5049110;28;19921;-85
2023/06/12 10:32:39;;;;;;;;;;;19.20;73.10;;;18.55;nan;95928.34;5066244;28;19927;-85
2023/06/12 10:35:07;;;;;;;;;;;19.20;73.20;;;18.58;nan;95935.22;5066555;28;20113;-85
2023/06/12 10:37:38;;;;;;;;;;;19.20;73.30;;;18.57;nan;95930.81;5049405;28;19940;-85
2023/06/12 10:40:10;;;;;;;;;;;19.20;73.10;;;18.56;nan;95927.19;5048925;28;19921;-85
2023/06/12 10:42:45;;;;;;;;;;;19.20;73.10;;;18.57;nan;95919.72;5049294;28;19921;-85
2023/06/12 10:45:18;;;;;;;;;;;19.20;73.20;;;18.56;nan;95918.88;5066236;28;19921;-85
2023/06/12 10:48:17;;;;;;;;;;;19.20;72.80;;;18.58;nan;95924.91;5065989;28;19920;-84
2023/06/12 10:50:46;;;;;;;;;;;19.20;72.70;;;18.58;nan;95919.38;5049008;28;19927;-85
2023/06/12 10:53:14;;;;;;;;;;;19.30;72.80;;;18.60;nan;95922.63;5050584;28;20088;-85
2023/06/12 10:55:43;;;;;;;;;;;19.30;72.90;;;18.62;nan;95916.75;5065955;28;19921;-84
2023/06/12 10:58:12;;;;;;;;;;;19.30;73.20;;;18.63;nan;95919.22;5049335;28;19921;-85
2023/06/12 11:00:46;;;;;;;;;;;19.30;73.50;;;18.64;nan;95915.31;5082486;28;19927;-84
2023/06/12 11:03:16;;;;;;;;;;;19.30;73.60;;;18.67;nan;95924.91;5049352;28;19921;-85
2023/06/12 11:05:48;;;;;;;;;;;19.30;73.30;;;18.67;nan;95920.16;5049287;28;19927;-85
2023/06/12 11:08:16;;;;;;;;;;;19.40;72.70;;;18.68;nan;95918.22;5032400;28;19943;-85
2023/06/12 11:10:44;;;;;;;;;;;19.40;72.80;;;18.69;nan;95923.41;5048803;28;19921;-85
2023/06/12 11:13:12;;;;;;;;;;;19.40;73.20;;;18.70;nan;95919.50;5049012;28;19921;-84
2023/06/12 11:15:45;;;;;;;;;;;19.40;73.10;;;18.71;nan;95914.78;5050446;28;19927;-85
2023/06/12 11:18:14;;;;;;;;;;;19.40;72.80;;;18.73;nan;95917.22;5051254;28;19927;-85
2023/06/12 11:20:45;;;;;;;;;;;19.40;72.40;;;18.74;nan;95919.66;5052315;28;19927;-85
2023/06/12 11:23:13;;;;;;;;;;;19.40;72.40;;;18.76;nan;95911.81;5053537;28;19921;-85
2023/06/12 11:25:44;;;;;;;;;;;19.40;72.50;;;18.78;nan;95908.75;5052498;28;19928;-84
2023/06/12 11:28:13;;;;;;;;;;;19.40;72.20;;;18.79;nan;95910.34;5052191;28;19921;-85
2023/06/12 11:30:41;;;;;;;;;;;19.40;72.30;;;18.80;nan;95912.81;5053263;28;19927;-84
2023/06/12 11:33:12;;;;;;;;;;;19.50;72.40;;;18.81;nan;95911.66;5035442;28;19921;-84
2023/06/12 11:35:41;;;;;;;;;;;19.50;72.70;;;18.83;nan;95908.53;5052305;28;19921;-84
2023/06/12 11:38:09;;;;;;;;;;;19.50;72.00;;;18.84;nan;95904.63;5068942;28;19927;-85
2023/06/12 11:40:37;;;;;;;;;;;19.50;72.40;;;18.85;nan;95906.25;5051835;28;19927;-85
2023/06/12 11:43:06;;;;;;;;;;;19.50;72.40;;;18.86;nan;95910.66;5053198;28;19927;-85
2023/06/12 11:45:34;;;;;;;;;;;19.50;72.10;;;18.85;nan;95903.47;5052085;28;19920;-85